sensor_id;sensor_type;location;lat;lon;timestamp;pressure;altitude;pressure_sealevel;temperature
15544;BMP180;7873;52.230;12.856;2022-11-15T00:00:05;100688.09;;;27.01
15544;BMP180;7873;52.230;12.856;2022-11-15T00:02:32;100687.69;;;26.97
15544;BMP180;7873;52.230;12.856;2022-11-15T00:04:59;100691.44;;;26.96
15544;BMP180;7873;52.230;12.856;2022-11-15T00:07:25;100688.88;;;26.88
15544;BMP180;7873;52.230;12.856;2022-11-15T00:09:52;100687.84;;;26.83
15544;BMP180;7873;52.230;12.856;2022-11-15T00:12:19;100687.22;;;26.81
15544;BMP180;7873;52.230;12.856;2022-11-15T00:14:47;100676.78;;;26.78
15544;BMP180;7873;52.230;12.856;2022-11-15T00:17:13;100680.31;;;26.72
15544;BMP180;7873;52.230;12.856;2022-11-15T00:19:40;100672.22;;;26.72
15544;BMP180;7873;52.230;12.856;2022-11-15T00:22:07;100663.47;;;26.70
15544;BMP180;7873;52.230;12.856;2022-11-15T00:24:33;100673.06;;;26.72
15544;BMP180;7873;52.230;12.856;2022-11-15T00:27:00;100671.41;;;26.71
15544;BMP180;7873;52.230;12.856;2022-11-15T00:29:27;100666.19;;;26.70
15544;BMP180;7873;52.230;12.856;2022-11-15T00:31:55;100673.03;;;26.66
15544;BMP180;7873;52.230;12.856;2022-11-15T00:34:21;100670.50;;;26.64
15544;BMP180;7873;52.230;12.856;2022-11-15T00:36:48;100668.22;;;26.61
15544;BMP180;7873;52.230;12.856;2022-11-15T00:39:15;100674.88;;;26.59
15544;BMP180;7873;52.230;12.856;2022-11-15T00:41:41;100672.19;;;26.59
15544;BMP180;7873;52.230;12.856;2022-11-15T00:44:08;100669.03;;;26.55
15544;BMP180;7873;52.230;12.856;2022-11-15T00:46:35;100661.75;;;26.56
15544;BMP180;7873;52.230;12.856;2022-11-15T00:49:03;100668.19;;;26.55
15544;BMP180;7873;52.230;12.856;2022-11-15T00:51:30;100660.50;;;26.52
15544;BMP180;7873;52.230;12.856;2022-11-15T00:53:56;100659.25;;;26.48
15544;BMP180;7873;52.230;12.856;2022-11-15T00:56:23;100654.03;;;26.46
15544;BMP180;7873;52.230;12.856;2022-11-15T00:58:50;100653.34;;;26.44
15544;BMP180;7873;52.230;12.856;2022-11-15T01:01:16;100648.19;;;26.43
15544;BMP180;7873;52.230;12.856;2022-11-15T01:03:43;100644.63;;;26.42
15544;BMP180;7873;52.230;12.856;2022-11-15T01:06:11;100648.19;;;26.43
15544;BMP180;7873;52.230;12.856;2022-11-15T01:08:38;100634.88;;;26.41
15544;BMP180;7873;52.230;12.856;2022-11-15T01:11:07;100629.69;;;26.40
15544;BMP180;7873;52.230;12.856;2022-11-15T01:13:35;100633.41;;;26.39
15544;BMP180;7873;52.230;12.856;2022-11-15T01:16:06;100632.16;;;26.35
15544;BMP180;7873;52.230;12.856;2022-11-15T01:18:33;100641.28;;;26.34
15544;BMP180;7873;52.230;12.856;2022-11-15T01:21:04;100639.59;;;26.33
15544;BMP180;7873;52.230;12.856;2022-11-15T01:23:32;100631.28;;;26.28
15544;BMP180;7873;52.230;12.856;2022-11-15T01:25:59;100627.75;;;26.27
15544;BMP180;7873;52.230;12.856;2022-11-15T01:28:30;100635.22;;;26.25
15544;BMP180;7873;52.230;12.856;2022-11-15T01:30:58;100622.75;;;26.24
15544;BMP180;7873;52.230;12.856;2022-11-15T01:33:24;100627.72;;;26.21
15544;BMP180;7873;52.230;12.856;2022-11-15T01:35:51;100619.63;;;26.21
15544;BMP180;7873;52.230;12.856;2022-11-15T01:38:18;100624.38;;;26.19
15544;BMP180;7873;52.230;12.856;2022-11-15T01:40:46;100619.41;;;26.16
15544;BMP180;7873;52.230;12.856;2022-11-15T01:43:23;100621.25;;;26.15
15544;BMP180;7873;52.230;12.856;2022-11-15T01:45:53;100609.81;;;26.13
15544;BMP180;7873;52.230;12.856;2022-11-15T01:48:23;100602.97;;;26.11
15544;BMP180;7873;52.230;12.856;2022-11-15T01:50:52;100598.41;;;26.11
15544;BMP180;7873;52.230;12.856;2022-11-15T01:53:21;100607.53;;;26.10
15544;BMP180;7873;52.230;12.856;2022-11-15T01:55:51;100609.38;;;26.10
15544;BMP180;7873;52.230;12.856;2022-11-15T01:58:18;100600.88;;;26.06
15544;BMP180;7873;52.230;12.856;2022-11-15T02:00:45;100603.56;;;26.06
15544;BMP180;7873;52.230;12.856;2022-11-15T02:03:13;100594.00;;;26.04
15544;BMP180;7873;52.230;12.856;2022-11-15T02:05:41;100590.25;;;26.05
15544;BMP180;7873;52.230;12.856;2022-11-15T02:08:09;100584.44;;;26.01
15544;BMP180;7873;52.230;12.856;2022-11-15T02:10:45;100593.56;;;26.00
15544;BMP180;7873;52.230;12.856;2022-11-15T02:13:13;100587.34;;;26.00
15544;BMP180;7873;52.230;12.856;2022-11-15T02:15:46;100592.28;;;25.96
15544;BMP180;7873;52.230;12.856;2022-11-15T02:18:18;100587.91;;;25.95
15544;BMP180;7873;52.230;12.856;2022-11-15T02:20:58;100590.22;;;25.92
15544;BMP180;7873;52.230;12.856;2022-11-15T02:23:51;100588.53;;;25.91
15544;BMP180;7873;52.230;12.856;2022-11-15T02:29:21;100586.25;;;25.88
15544;BMP180;7873;52.230;12.856;2022-11-15T02:32:03;100584.75;;;25.85
15544;BMP180;7873;52.230;12.856;2022-11-15T02:34:35;100586.84;;;25.83
15544;BMP180;7873;52.230;12.856;2022-11-15T02:37:10;100584.13;;;25.83
15544;BMP180;7873;52.230;12.856;2022-11-15T02:39:46;100581.59;;;25.82
15544;BMP180;7873;52.230;12.856;2022-11-15T02:42:18;100581.59;;;25.82
15544;BMP180;7873;52.230;12.856;2022-11-15T02:45:22;100572.47;;;25.83
15544;BMP180;7873;52.230;12.856;2022-11-15T02:47:54;100568.75;;;25.84
15544;BMP180;7873;52.230;12.856;2022-11-15T02:50:25;100568.75;;;25.84
15544;BMP180;7873;52.230;12.856;2022-11-15T02:52:53;100556.28;;;25.83
15544;BMP180;7873;52.230;12.856;2022-11-15T02:55:29;100566.66;;;25.79
15544;BMP180;7873;52.230;12.856;2022-11-15T02:58:19;100567.47;;;25.80
15544;BMP180;7873;52.230;12.856;2022-11-15T03:00:55;100561.25;;;25.79
15544;BMP180;7873;52.230;12.856;2022-11-15T03:03:38;100573.72;;;25.80
15544;BMP180;7873;52.230;12.856;2022-11-15T03:06:15;100570.16;;;25.80
15544;BMP180;7873;52.230;12.856;2022-11-15T03:08:51;100573.91;;;25.79
15544;BMP180;7873;52.230;12.856;2022-11-15T03:11:21;100573.25;;;25.77
15544;BMP180;7873;52.230;12.856;2022-11-15T03:13:54;100569.94;;;25.75
15544;BMP180;7873;52.230;12.856;2022-11-15T03:16:26;100559.34;;;25.73
15544;BMP180;7873;52.230;12.856;2022-11-15T03:18:59;100562.25;;;25.72
15544;BMP180;7873;52.230;12.856;2022-11-15T03:21:28;100555.38;;;25.69
15544;BMP180;7873;52.230;12.856;2022-11-15T03:23:58;100557.44;;;25.67
15544;BMP180;7873;52.230;12.856;2022-11-15T03:26:28;100553.06;;;25.66
15544;BMP180;7873;52.230;12.856;2022-11-15T03:29:00;100549.56;;;25.66
15544;BMP180;7873;52.230;12.856;2022-11-15T03:31:30;100560.53;;;25.64
15544;BMP180;7873;52.230;12.856;2022-11-15T03:34:20;100559.06;;;25.62
15544;BMP180;7873;52.230;12.856;2022-11-15T03:36:49;100561.34;;;25.58
15544;BMP180;7873;52.230;12.856;2022-11-15T03:39:17;100552.41;;;25.58
15544;BMP180;7873;52.230;12.856;2022-11-15T03:41:48;100552.63;;;25.57
15544;BMP180;7873;52.230;12.856;2022-11-15T03:44:22;100547.41;;;25.55
15544;BMP180;7873;52.230;12.856;2022-11-15T03:46:58;100553.81;;;25.54
15544;BMP180;7873;52.230;12.856;2022-11-15T03:49:32;100549.47;;;25.53
15544;BMP180;7873;52.230;12.856;2022-11-15T03:52:00;100545.72;;;25.54
15544;BMP180;7873;52.230;12.856;2022-11-15T03:54:27;100543.88;;;25.55
15544;BMP180;7873;52.230;12.856;2022-11-15T03:56:53;100540.75;;;25.51
15544;BMP180;7873;52.230;12.856;2022-11-15T03:59:21;100534.50;;;25.51
15544;BMP180;7873;52.230;12.856;2022-11-15T04:01:48;100535.75;;;25.48
15544;BMP180;7873;52.230;12.856;2022-11-15T04:04:15;100529.31;;;25.49
15544;BMP180;7873;52.230;12.856;2022-11-15T04:06:43;100533.88;;;25.49
15544;BMP180;7873;52.230;12.856;2022-11-15T04:09:09;100533.06;;;25.48
15544;BMP180;7873;52.230;12.856;2022-11-15T04:11:36;100525.81;;;25.55
15544;BMP180;7873;52.230;12.856;2022-11-15T04:14:03;100532.06;;;25.56
15544;BMP180;7873;52.230;12.856;2022-11-15T04:16:30;100530.00;;;25.58
15544;BMP180;7873;52.230;12.856;2022-11-15T04:18:56;100531.44;;;25.60
15544;BMP180;7873;52.230;12.856;2022-11-15T04:21:37;100527.72;;;25.61
15544;BMP180;7873;52.230;12.856;2022-11-15T04:24:22;100525.88;;;25.61
15544;BMP180;7873;52.230;12.856;2022-11-15T04:26:49;100520.47;;;25.61
15544;BMP180;7873;52.230;12.856;2022-11-15T04:29:16;100520.72;;;25.66
15544;BMP180;7873;52.230;12.856;2022-11-15T04:32:01;100516.34;;;25.65
15544;BMP180;7873;52.230;12.856;2022-11-15T04:34:28;100514.69;;;25.64
15544;BMP180;7873;52.230;12.856;2022-11-15T04:36:55;100521.75;;;25.65
15544;BMP180;7873;52.230;12.856;2022-11-15T04:39:43;100524.44;;;25.65
15544;BMP180;7873;52.230;12.856;2022-11-15T04:42:10;100516.13;;;25.60
15544;BMP180;7873;52.230;12.856;2022-11-15T04:44:37;100520.25;;;25.63
15544;BMP180;7873;52.230;12.856;2022-11-15T04:47:04;100514.69;;;25.64
15544;BMP180;7873;52.230;12.856;2022-11-15T04:49:31;100516.34;;;25.65
15544;BMP180;7873;52.230;12.856;2022-11-15T04:51:57;100519.91;;;25.66
15544;BMP180;7873;52.230;12.856;2022-11-15T04:54:24;100521.94;;;25.64
15544;BMP180;7873;52.230;12.856;2022-11-15T04:56:52;100526.69;;;25.62
15544;BMP180;7873;52.230;12.856;2022-11-15T04:59:19;100532.31;;;25.60
15544;BMP180;7873;52.230;12.856;2022-11-15T05:01:46;100537.06;;;25.58
15544;BMP180;7873;52.230;12.856;2022-11-15T05:04:12;100530.19;;;25.56
15544;BMP180;7873;52.230;12.856;2022-11-15T05:06:44;100526.63;;;25.49
15544;BMP180;7873;52.230;12.856;2022-11-15T05:09:11;100533.06;;;25.48
15544;BMP180;7873;52.230;12.856;2022-11-15T05:11:39;100535.50;;;25.43
15544;BMP180;7873;52.230;12.856;2022-11-15T05:14:07;100528.66;;;25.41
15544;BMP180;7873;52.230;12.856;2022-11-15T05:16:34;100537.75;;;25.40
15544;BMP180;7873;52.230;12.856;2022-11-15T05:19:01;100529.84;;;25.38
15544;BMP180;7873;52.230;12.856;2022-11-15T05:21:28;100529.03;;;25.38
15544;BMP180;7873;52.230;12.856;2022-11-15T05:23:54;100529.22;;;25.36
15544;BMP180;7873;52.230;12.856;2022-11-15T05:26:21;100530.66;;;25.32
15544;BMP180;7873;52.230;12.856;2022-11-15T05:28:52;100522.97;;;25.29
15544;BMP180;7873;52.230;12.856;2022-11-15T05:31:21;100525.84;;;25.28
15544;BMP180;7873;52.230;12.856;2022-11-15T05:33:48;100522.72;;;25.24
15544;BMP180;7873;52.230;12.856;2022-11-15T05:36:20;100523.94;;;25.22
15544;BMP180;7873;52.230;12.856;2022-11-15T05:38:48;100514.09;;;25.14
15544;BMP180;7873;52.230;12.856;2022-11-15T05:41:17;100514.31;;;25.13
15544;BMP180;7873;52.230;12.856;2022-11-15T05:43:45;100513.69;;;25.11
15544;BMP180;7873;52.230;12.856;2022-11-15T05:46:13;100514.72;;;25.10
15544;BMP180;7873;52.230;12.856;2022-11-15T05:48:45;100512.03;;;25.10
15544;BMP180;7873;52.230;12.856;2022-11-15T05:51:15;100526.53;;;25.09
15544;BMP180;7873;52.230;12.856;2022-11-15T05:53:44;100520.50;;;25.07
15544;BMP180;7873;52.230;12.856;2022-11-15T05:56:12;100519.00;;;25.04
15544;BMP180;7873;52.230;12.856;2022-11-15T05:58:39;100518.38;;;25.02
15544;BMP180;7873;52.230;12.856;2022-11-15T06:01:05;100512.34;;;25.00
15544;BMP180;7873;52.230;12.856;2022-11-15T06:03:32;100517.50;;;24.95
15544;BMP180;7873;52.230;12.856;2022-11-15T06:06:00;100517.03;;;24.92
15544;BMP180;7873;52.230;12.856;2022-11-15T06:08:27;100508.31;;;24.90
15544;BMP180;7873;52.230;12.856;2022-11-15T06:10:53;100508.50;;;24.88
15544;BMP180;7873;52.230;12.856;2022-11-15T06:13:20;100513.25;;;24.86
15544;BMP180;7873;52.230;12.856;2022-11-15T06:15:47;100513.47;;;24.85
15544;BMP180;7873;52.230;12.856;2022-11-15T06:18:14;100520.69;;;24.84
15544;BMP180;7873;52.230;12.856;2022-11-15T06:20:40;100526.09;;;24.84
15544;BMP180;7873;52.230;12.856;2022-11-15T06:23:08;100511.97;;;24.82
15544;BMP180;7873;52.230;12.856;2022-11-15T06:25:35;100514.84;;;24.81
15544;BMP180;7873;52.230;12.856;2022-11-15T06:28:02;100518.19;;;24.83
15544;BMP180;7873;52.230;12.856;2022-11-15T06:30:29;100517.56;;;24.81
15544;BMP180;7873;52.230;12.856;2022-11-15T06:33:00;100531.88;;;24.81
15544;BMP180;7873;52.230;12.856;2022-11-15T06:35:28;100531.88;;;24.81
15544;BMP180;7873;52.230;12.856;2022-11-15T06:37:54;100527.28;;;24.82
15544;BMP180;7873;52.230;12.856;2022-11-15T06:40:22;100529.75;;;24.77
15544;BMP180;7873;52.230;12.856;2022-11-15T06:42:49;100521.88;;;24.75
15544;BMP180;7873;52.230;12.856;2022-11-15T06:45:16;100533.28;;;24.77
15544;BMP180;7873;52.230;12.856;2022-11-15T06:47:44;100537.00;;;24.76
15544;BMP180;7873;52.230;12.856;2022-11-15T06:50:12;100539.69;;;24.76
15544;BMP180;7873;52.230;12.856;2022-11-15T06:52:38;100540.72;;;24.75
15544;BMP180;7873;52.230;12.856;2022-11-15T06:55:06;100545.09;;;24.76
15544;BMP180;7873;52.230;12.856;2022-11-15T06:57:35;100547.13;;;24.74
15544;BMP180;7873;52.230;12.856;2022-11-15T07:00:03;100539.41;;;24.71
15544;BMP180;7873;52.230;12.856;2022-11-15T07:02:30;100550.41;;;24.70
15544;BMP180;7873;52.230;12.856;2022-11-15T07:04:57;100549.38;;;24.71
15544;BMP180;7873;52.230;12.856;2022-11-15T07:07:23;100542.97;;;24.72
15544;BMP180;7873;52.230;12.856;2022-11-15T07:09:50;100547.50;;;24.71
15544;BMP180;7873;52.230;12.856;2022-11-15T07:12:17;100556.59;;;24.70
15544;BMP180;7873;52.230;12.856;2022-11-15T07:14:45;100553.47;;;24.67
15544;BMP180;7873;52.230;12.856;2022-11-15T07:17:11;100552.84;;;24.65
15544;BMP180;7873;52.230;12.856;2022-11-15T07:19:38;100554.28;;;24.67
15544;BMP180;7873;52.230;12.856;2022-11-15T07:22:05;100548.66;;;24.62
15544;BMP180;7873;52.230;12.856;2022-11-15T07:24:31;100547.84;;;24.62
15544;BMP180;7873;52.230;12.856;2022-11-15T07:26:58;100551.75;;;24.59
15544;BMP180;7873;52.230;12.856;2022-11-15T07:29:25;100550.47;;;24.55
15544;BMP180;7873;52.230;12.856;2022-11-15T07:31:53;100546.09;;;24.54
15544;BMP180;7873;52.230;12.856;2022-11-15T07:34:20;100547.31;;;24.52
15544;BMP180;7873;52.230;12.856;2022-11-15T07:36:46;100551.88;;;24.51
15544;BMP180;7873;52.230;12.856;2022-11-15T07:39:13;100552.69;;;24.52
15544;BMP180;7873;52.230;12.856;2022-11-15T07:41:40;100547.47;;;24.50
15544;BMP180;7873;52.230;12.856;2022-11-15T07:44:08;100546.84;;;24.48
15544;BMP180;7873;52.230;12.856;2022-11-15T07:46:35;100556.75;;;24.48
15544;BMP180;7873;52.230;12.856;2022-11-15T07:49:03;100561.13;;;24.49
15544;BMP180;7873;52.230;12.856;2022-11-15T07:51:30;100555.09;;;24.47
15544;BMP180;7873;52.230;12.856;2022-11-15T07:53:57;100555.25;;;24.45
15544;BMP180;7873;52.230;12.856;2022-11-15T07:56:23;100556.28;;;24.44
15544;BMP180;7873;52.230;12.856;2022-11-15T07:58:50;100554.63;;;24.43
15544;BMP180;7873;52.230;12.856;2022-11-15T08:01:17;100557.13;;;24.45
15544;BMP180;7873;52.230;12.856;2022-11-15T08:03:43;100565.59;;;24.42
15544;BMP180;7873;52.230;12.856;2022-11-15T08:06:12;100560.22;;;24.42
15544;BMP180;7873;52.230;12.856;2022-11-15T08:08:38;100556.03;;;24.39
15544;BMP180;7873;52.230;12.856;2022-11-15T08:11:05;100552.88;;;24.36
15544;BMP180;7873;52.230;12.856;2022-11-15T08:13:32;100554.94;;;24.34
15544;BMP180;7873;52.230;12.856;2022-11-15T08:15:58;100553.09;;;24.34
15544;BMP180;7873;52.230;12.856;2022-11-15T08:18:25;100555.97;;;24.33
15544;BMP180;7873;52.230;12.856;2022-11-15T08:20:52;100545.56;;;24.30
15544;BMP180;7873;52.230;12.856;2022-11-15T08:23:20;100541.22;;;24.29
15544;BMP180;7873;52.230;12.856;2022-11-15T08:25:47;100551.34;;;24.27
15544;BMP180;7873;52.230;12.856;2022-11-15T08:28:16;100540.41;;;24.28
15544;BMP180;7873;52.230;12.856;2022-11-15T08:30:42;100546.59;;;24.29
15544;BMP180;7873;52.230;12.856;2022-11-15T08:33:11;100546.34;;;24.24
15544;BMP180;7873;52.230;12.856;2022-11-15T08:35:38;100548.19;;;24.23
15544;BMP180;7873;52.230;12.856;2022-11-15T08:38:05;100541.34;;;24.21
15544;BMP180;7873;52.230;12.856;2022-11-15T08:40:33;100534.09;;;24.21
15544;BMP180;7873;52.230;12.856;2022-11-15T08:43:00;100536.59;;;24.23
15544;BMP180;7873;52.230;12.856;2022-11-15T08:45:28;100537.78;;;24.20
15544;BMP180;7873;52.230;12.856;2022-11-15T08:47:55;100535.50;;;24.17
15544;BMP180;7873;52.230;12.856;2022-11-15T08:50:22;100533.66;;;24.18
15544;BMP180;7873;52.230;12.856;2022-11-15T08:52:49;100538.00;;;24.19
15544;BMP180;7873;52.230;12.856;2022-11-15T08:55:16;100539.84;;;24.18
15544;BMP180;7873;52.230;12.856;2022-11-15T08:57:44;100541.06;;;24.16
15544;BMP180;7873;52.230;12.856;2022-11-15T09:00:12;100540.88;;;24.17
15544;BMP180;7873;52.230;12.856;2022-11-15T09:02:39;100547.09;;;24.18
15544;BMP180;7873;52.230;12.856;2022-11-15T09:05:07;100540.22;;;24.15
15544;BMP180;7873;52.230;12.856;2022-11-15T09:07:34;100541.06;;;24.16
15544;BMP180;7873;52.230;12.856;2022-11-15T09:10:01;100528.81;;;24.13
15544;BMP180;7873;52.230;12.856;2022-11-15T09:12:27;100538.56;;;24.14
15544;BMP180;7873;52.230;12.856;2022-11-15T09:14:55;100540.63;;;24.12
15544;BMP180;7873;52.230;12.856;2022-11-15T09:17:23;100541.81;;;24.10
15544;BMP180;7873;52.230;12.856;2022-11-15T09:19:50;100542.84;;;24.09
15544;BMP180;7873;52.230;12.856;2022-11-15T09:22:16;100544.69;;;24.08
15544;BMP180;7873;52.230;12.856;2022-11-15T09:24:43;100540.34;;;24.07
15544;BMP180;7873;52.230;12.856;2022-11-15T09:27:10;100542.19;;;24.07
15544;BMP180;7873;52.230;12.856;2022-11-15T09:29:37;100543.84;;;24.08
15544;BMP180;7873;52.230;12.856;2022-11-15T09:32:05;100545.09;;;24.05
15544;BMP180;7873;52.230;12.856;2022-11-15T09:34:32;100543.59;;;24.03
15544;BMP180;7873;52.230;12.856;2022-11-15T09:36:58;100544.44;;;24.03
15544;BMP180;7873;52.230;12.856;2022-11-15T09:39:25;100538.38;;;24.01
15544;BMP180;7873;52.230;12.856;2022-11-15T09:42:05;100542.94;;;24.01
15544;BMP180;7873;52.230;12.856;2022-11-15T09:44:51;100540.25;;;24.01
15544;BMP180;7873;52.230;12.856;2022-11-15T09:47:40;100540.25;;;24.01
15544;BMP180;7873;52.230;12.856;2022-11-15T09:50:14;100527.84;;;24.00
15544;BMP180;7873;52.230;12.856;2022-11-15T09:52:44;100535.25;;;23.98
15544;BMP180;7873;52.230;12.856;2022-11-15T09:55:12;100536.47;;;23.95
15544;BMP180;7873;52.230;12.856;2022-11-15T09:57:50;100538.13;;;23.96
15544;BMP180;7873;52.230;12.856;2022-11-15T10:00:22;100536.47;;;23.95
15544;BMP180;7873;52.230;12.856;2022-11-15T10:03:06;100537.69;;;23.93
15544;BMP180;7873;52.230;12.856;2022-11-15T10:05:38;100529.63;;;23.93
15544;BMP180;7873;52.230;12.856;2022-11-15T10:08:13;100535.81;;;23.93
15544;BMP180;7873;52.230;12.856;2022-11-15T10:10:46;100530.25;;;23.95
15544;BMP180;7873;52.230;12.856;2022-11-15T10:13:16;100520.69;;;23.92
15544;BMP180;7873;52.230;12.856;2022-11-15T10:15:47;100514.28;;;23.93
15544;BMP180;7873;52.230;12.856;2022-11-15T10:18:17;100510.16;;;23.91
15544;BMP180;7873;52.230;12.856;2022-11-15T10:20:50;100503.28;;;23.88
15544;BMP180;7873;52.230;12.856;2022-11-15T10:23:18;100502.25;;;23.89
15544;BMP180;7873;52.230;12.856;2022-11-15T10:25:46;100498.53;;;23.90
15544;BMP180;7873;52.230;12.856;2022-11-15T10:28:17;100487.13;;;23.88
15544;BMP180;7873;52.230;12.856;2022-11-15T10:30:48;100480.09;;;23.87
15544;BMP180;7873;52.230;12.856;2022-11-15T10:33:27;100481.75;;;23.88
15544;BMP180;7873;52.230;12.856;2022-11-15T10:36:19;100476.56;;;23.87
15544;BMP180;7873;52.230;12.856;2022-11-15T10:38:58;100480.25;;;23.86
15544;BMP180;7873;52.230;12.856;2022-11-15T10:41:35;100475.91;;;23.85
15544;BMP180;7873;52.230;12.856;2022-11-15T10:44:09;100472.41;;;23.84
15544;BMP180;7873;52.230;12.856;2022-11-15T10:46:39;100474.06;;;23.85
15544;BMP180;7873;52.230;12.856;2022-11-15T10:49:14;100464.34;;;23.84
15544;BMP180;7873;52.230;12.856;2022-11-15T10:51:44;100460.81;;;23.84
15544;BMP180;7873;52.230;12.856;2022-11-15T10:54:11;100464.50;;;23.83
15544;BMP180;7873;52.230;12.856;2022-11-15T10:56:39;100460.81;;;23.84
15544;BMP180;7873;52.230;12.856;2022-11-15T10:59:15;100450.25;;;23.83
15544;BMP180;7873;52.230;12.856;2022-11-15T11:01:46;100450.25;;;23.83
15544;BMP180;7873;52.230;12.856;2022-11-15T11:04:14;100447.06;;;23.79
15544;BMP180;7873;52.230;12.856;2022-11-15T11:06:49;100445.56;;;23.76
15544;BMP180;7873;52.230;12.856;2022-11-15T11:09:27;100440.56;;;23.73
15544;BMP180;7873;52.230;12.856;2022-11-15T11:11:55;100447.56;;;23.68
15544;BMP180;7873;52.230;12.856;2022-11-15T11:14:24;100447.34;;;23.70
15544;BMP180;7873;52.230;12.856;2022-11-15T11:16:55;100441.97;;;23.70
15544;BMP180;7873;52.230;12.856;2022-11-15T11:19:43;100430.41;;;23.69
15544;BMP180;7873;52.230;12.856;2022-11-15T11:22:17;100438.66;;;23.68
15544;BMP180;7873;52.230;12.856;2022-11-15T11:24:53;100431.22;;;23.70
15544;BMP180;7873;52.230;12.856;2022-11-15T11:27:30;100421.50;;;23.69
15544;BMP180;7873;52.230;12.856;2022-11-15T11:30:06;100436.81;;;23.68
15544;BMP180;7873;52.230;12.856;2022-11-15T11:32:46;100423.38;;;23.68
15544;BMP180;7873;52.230;12.856;2022-11-15T11:35:20;100421.69;;;23.67
15544;BMP180;7873;52.230;12.856;2022-11-15T11:37:51;100419.66;;;23.69
15544;BMP180;7873;52.230;12.856;2022-11-15T11:40:28;100415.09;;;23.70
15544;BMP180;7873;52.230;12.856;2022-11-15T11:43:00;100408.69;;;23.71
15544;BMP180;7873;52.230;12.856;2022-11-15T11:45:52;100414.28;;;23.69
15544;BMP180;7873;52.230;12.856;2022-11-15T11:48:26;100410.75;;;23.69
15544;BMP180;7873;52.230;12.856;2022-11-15T11:51:03;100398.16;;;23.69
15544;BMP180;7873;52.230;12.856;2022-11-15T11:53:39;100400.63;;;23.71
15544;BMP180;7873;52.230;12.856;2022-11-15T11:56:15;100395.25;;;23.71
15544;BMP180;7873;52.230;12.856;2022-11-15T11:58:44;100393.22;;;23.73
15544;BMP180;7873;52.230;12.856;2022-11-15T12:01:16;100393.22;;;23.73
15544;BMP180;7873;52.230;12.856;2022-11-15T12:03:47;100385.34;;;23.71
15544;BMP180;7873;52.230;12.856;2022-11-15T12:06:22;100387.00;;;23.72
15544;BMP180;7873;52.230;12.856;2022-11-15T12:08:53;100388.47;;;23.74
15544;BMP180;7873;52.230;12.856;2022-11-15T12:11:26;100379.75;;;23.73
15544;BMP180;7873;52.230;12.856;2022-11-15T12:13:58;100385.16;;;23.73
15544;BMP180;7873;52.230;12.856;2022-11-15T12:16:28;100374.38;;;23.73
15544;BMP180;7873;52.230;12.856;2022-11-15T12:18:59;100378.75;;;23.73
15544;BMP180;7873;52.230;12.856;2022-11-15T12:21:34;100377.72;;;23.74
15544;BMP180;7873;52.230;12.856;2022-11-15T12:24:02;100369.88;;;23.73
15544;BMP180;7873;52.230;12.856;2022-11-15T12:26:35;100365.13;;;23.75
15544;BMP180;7873;52.230;12.856;2022-11-15T12:29:08;100374.00;;;23.75
15544;BMP180;7873;52.230;12.856;2022-11-15T12:31:38;100383.56;;;23.78
15544;BMP180;7873;52.230;12.856;2022-11-15T12:34:15;100372.16;;;23.76
15544;BMP180;7873;52.230;12.856;2022-11-15T12:36:56;100361.19;;;23.77
15544;BMP180;7873;52.230;12.856;2022-11-15T12:40:03;100351.28;;;23.78
15544;BMP180;7873;52.230;12.856;2022-11-15T12:42:40;100351.13;;;23.79
15544;BMP180;7873;52.230;12.856;2022-11-15T12:45:25;100350.91;;;23.81
15544;BMP180;7873;52.230;12.856;2022-11-15T12:47:52;100349.91;;;23.82
15544;BMP180;7873;52.230;12.856;2022-11-15T12:50:52;100344.72;;;23.80
15544;BMP180;7873;52.230;12.856;2022-11-15T12:53:28;100338.34;;;23.82
15544;BMP180;7873;52.230;12.856;2022-11-15T12:56:20;100345.53;;;23.81
15544;BMP180;7873;52.230;12.856;2022-11-15T12:58:50;100340.00;;;23.83
15544;BMP180;7873;52.230;12.856;2022-11-15T13:04:24;100333.59;;;23.83
15544;BMP180;7873;52.230;12.856;2022-11-15T13:06:52;100325.31;;;23.85
15544;BMP180;7873;52.230;12.856;2022-11-15T13:09:53;100331.56;;;23.85
15544;BMP180;7873;52.230;12.856;2022-11-15T13:12:52;100332.19;;;23.87
15544;BMP180;7873;52.230;12.856;2022-11-15T13:15:57;100320.34;;;23.82
15544;BMP180;7873;52.230;12.856;2022-11-15T13:18:34;100320.34;;;23.82
15544;BMP180;7873;52.230;12.856;2022-11-15T13:21:03;100321.34;;;23.81
15544;BMP180;7873;52.230;12.856;2022-11-15T13:23:53;100313.75;;;23.84
15544;BMP180;7873;52.230;12.856;2022-11-15T13:26:21;100316.25;;;23.86
15544;BMP180;7873;52.230;12.856;2022-11-15T13:28:50;100317.09;;;23.86
15544;BMP180;7873;52.230;12.856;2022-11-15T13:31:29;100319.94;;;23.85
15544;BMP180;7873;52.230;12.856;2022-11-15T13:33:59;100317.25;;;23.85
15544;BMP180;7873;52.230;12.856;2022-11-15T13:36:29;100309.84;;;23.87
15544;BMP180;7873;52.230;12.856;2022-11-15T13:39:01;100315.03;;;23.88
15544;BMP180;7873;52.230;12.856;2022-11-15T13:41:31;100306.13;;;23.88
15544;BMP180;7873;52.230;12.856;2022-11-15T13:43:59;100315.03;;;23.88
15544;BMP180;7873;52.230;12.856;2022-11-15T13:46:27;100308.00;;;23.87
15544;BMP180;7873;52.230;12.856;2022-11-15T13:48:58;100308.00;;;23.87
15544;BMP180;7873;52.230;12.856;2022-11-15T13:51:34;100301.75;;;23.87
15544;BMP180;7873;52.230;12.856;2022-11-15T13:54:05;100300.31;;;23.84
15544;BMP180;7873;52.230;12.856;2022-11-15T13:56:36;100304.03;;;23.83
15544;BMP180;7873;52.230;12.856;2022-11-15T13:59:09;100300.50;;;23.83
15544;BMP180;7873;52.230;12.856;2022-11-15T14:01:36;100305.06;;;23.83
15544;BMP180;7873;52.230;12.856;2022-11-15T14:04:03;100307.06;;;23.80
15544;BMP180;7873;52.230;12.856;2022-11-15T14:06:30;100303.53;;;23.80
15544;BMP180;7873;52.230;12.856;2022-11-15T14:11:51;100313.84;;;23.76
15544;BMP180;7873;52.230;12.856;2022-11-15T14:14:20;100308.44;;;23.76
15544;BMP180;7873;52.230;12.856;2022-11-15T14:16:49;100305.13;;;23.74
15544;BMP180;7873;52.230;12.856;2022-11-15T14:19:35;100308.03;;;23.73
15544;BMP180;7873;52.230;12.856;2022-11-15T14:22:18;100310.88;;;23.72
15544;BMP180;7873;52.230;12.856;2022-11-15T14:25:03;100303.03;;;23.70